Aidan Devall — WD13173 — position and weather

sailwx.info

Track history (hours):
 
Tides and Currents Weather Stations Pressure Air Temp Water Temp Dewpoint Dewpoint Depression Visibility Wind Speed Wind Dir Waves Ship Positions

Aidan Devall

Last reported at 2018-Feb-20 05:29 UTC. Time now 2018-Feb-21 17:26 UTC.
Position N 28°27' W 096°47'.

Length 21 m.

Type: Towing. MMSI: 367685720.

Date/timePositionNaut miles runAvg speedWind from/ knotsBaromVisibWave heightAir tempDewpointWater temp
2018-Feb-20 05:29N 28°27' W 096°47'3 5.3
2018-Feb-20 04:56N 28°25' W 096°45'4 6.7
2018-Feb-20 04:22N 28°21' W 096°43'15 5.7
2018-Feb-20 01:40N 28°09' W 096°53'1 4.8
2018-Feb-20 01:28N 28°09' W 096°54'3 5.8
2018-Feb-20 00:57N 28°06' W 096°56'3 7.2
2018-Feb-20 00:28N 28°04' W 096°59'4 7.2
2018-Feb-19 23:58N 28°01' W 097°01'  
2018-Feb-17 17:25N 27°49' W 097°16'3 7.4
2018-Feb-17 17:00N 27°49' W 097°13'2 4.3
2018-Feb-17 16:29N 27°50' W 097°11'1 2.1
2018-Feb-17 16:00N 27°51' W 097°10'0 0.0
2018-Feb-17 15:29N 27°51' W 097°10'0 0.0
2018-Feb-17 14:48N 27°51' W 097°10'0 0.0
2018-Feb-17 14:28N 27°51' W 097°10'0 0.0
2018-Feb-17 13:12N 27°51' W 097°10'0 0.0
2018-Feb-17 13:00N 27°51' W 097°10'0 0.0
2018-Feb-17 11:46N 27°51' W 097°10'0 0.0
2018-Feb-17 11:10N 27°51' W 097°10'0 0.0
2018-Feb-17 10:56N 27°51' W 097°10'0 0.0
2018-Feb-17 10:17N 27°51' W 097°10'0 0.0
2018-Feb-17 09:58N 27°51' W 097°10'0 0.0
2018-Feb-17 09:26N 27°51' W 097°10'2 0.2
2018-Feb-17 00:44N 27°50' W 097°11'2 5.2
2018-Feb-17 00:21N 27°50' W 097°09'3 9.2
2018-Feb-17 00:00N 27°50' W 097°05'4 6.5
2018-Feb-16 23:28N 27°53' W 097°03'3 6.4
2018-Feb-16 22:59N 27°56' W 097°04'3 6.8
2018-Feb-16 22:30N 27°59' W 097°03'4 7.5
2018-Feb-16 22:00N 28°02' W 096°60'4 7.4
2018-Feb-16 21:29N 28°05' W 096°57'3 6.8
2018-Feb-16 21:00N 28°08' W 096°55'3 5.3
2018-Feb-16 20:29N 28°10' W 096°53'3 5.8
2018-Feb-16 20:00N 28°12' W 096°50'29 1.8
2018-Feb-16 03:56N 28°40' W 096°58'0 0.0
2018-Feb-16 03:29N 28°40' W 096°58'0 0.0
2018-Feb-16 02:55N 28°40' W 096°58'0 0.3
2018-Feb-16 02:18N 28°40' W 096°58'1 4.1
2018-Feb-16 02:00N 28°39' W 096°57'  
Track history (hours):
 
Tides and Currents Weather Stations Pressure Air Temp Water Temp Dewpoint Dewpoint Depression Visibility Wind Speed Wind Dir Waves Ship Positions

Aidan Devall

Last reported at 2018-Feb-20 05:29 UTC. Time now 2018-Feb-21 17:26 UTC.
Position N 28°27' W 096°47'.

Length 21 m.

Type: Towing. MMSI: 367685720.

Date/timePositionNaut miles runAvg speedWind from/ knotsBaromVisibWave heightAir tempDewpointWater temp
2018-Feb-20 05:29N 28°27' W 096°47'3 5.3
2018-Feb-20 04:56N 28°25' W 096°45'4 6.7
2018-Feb-20 04:22N 28°21' W 096°43'15 5.7
2018-Feb-20 01:40N 28°09' W 096°53'1 4.8
2018-Feb-20 01:28N 28°09' W 096°54'3 5.8
2018-Feb-20 00:57N 28°06' W 096°56'3 7.2
2018-Feb-20 00:28N 28°04' W 096°59'4 7.2
2018-Feb-19 23:58N 28°01' W 097°01'  
2018-Feb-17 17:25N 27°49' W 097°16'3 7.4
2018-Feb-17 17:00N 27°49' W 097°13'2 4.3
2018-Feb-17 16:29N 27°50' W 097°11'1 2.1
2018-Feb-17 16:00N 27°51' W 097°10'0 0.0
2018-Feb-17 15:29N 27°51' W 097°10'0 0.0
2018-Feb-17 14:48N 27°51' W 097°10'0 0.0
2018-Feb-17 14:28N 27°51' W 097°10'0 0.0
2018-Feb-17 13:12N 27°51' W 097°10'0 0.0
2018-Feb-17 13:00N 27°51' W 097°10'0 0.0
2018-Feb-17 11:46N 27°51' W 097°10'0 0.0
2018-Feb-17 11:10N 27°51' W 097°10'0 0.0
2018-Feb-17 10:56N 27°51' W 097°10'0 0.0
2018-Feb-17 10:17N 27°51' W 097°10'0 0.0
2018-Feb-17 09:58N 27°51' W 097°10'0 0.0
2018-Feb-17 09:26N 27°51' W 097°10'2 0.2
2018-Feb-17 00:44N 27°50' W 097°11'2 5.2
2018-Feb-17 00:21N 27°50' W 097°09'3 9.2
2018-Feb-17 00:00N 27°50' W 097°05'4 6.5
2018-Feb-16 23:28N 27°53' W 097°03'3 6.4
2018-Feb-16 22:59N 27°56' W 097°04'3 6.8
2018-Feb-16 22:30N 27°59' W 097°03'4 7.5
2018-Feb-16 22:00N 28°02' W 096°60'4 7.4
2018-Feb-16 21:29N 28°05' W 096°57'3 6.8
2018-Feb-16 21:00N 28°08' W 096°55'3 5.3
2018-Feb-16 20:29N 28°10' W 096°53'3 5.8
2018-Feb-16 20:00N 28°12' W 096°50'29 1.8
2018-Feb-16 03:56N 28°40' W 096°58'0 0.0
2018-Feb-16 03:29N 28°40' W 096°58'0 0.0
2018-Feb-16 02:55N 28°40' W 096°58'0 0.3
2018-Feb-16 02:18N 28°40' W 096°58'1 4.1
2018-Feb-16 02:00N 28°39' W 096°57'  

Dump ship's entire track history